createdAt,value
2019-04-14T00:00:53.463Z,6.58
2019-04-14T00:06:39.948Z,8.35
2019-04-14T00:09:21.007Z,11.30
2019-04-14T00:12:04.712Z,8.25
2019-04-14T00:14:44.690Z,7.25
2019-04-14T00:17:26.170Z,6.75
2019-04-14T00:20:07.374Z,9.30
2019-04-14T00:22:49.052Z,9.05
2019-04-14T00:25:30.511Z,9.95
2019-04-14T00:28:11.711Z,8.80
2019-04-14T00:30:53.419Z,9.65
2019-04-14T00:33:34.568Z,9.60
2019-04-14T00:36:19.979Z,9.15
2019-04-14T00:39:00.973Z,8.43
2019-04-14T00:42:03.392Z,10.23
2019-04-14T00:44:45.487Z,8.65
2019-04-14T00:50:21.145Z,8.43
2019-04-14T00:53:03.515Z,8.85
2019-04-14T00:55:44.871Z,10.43
2019-04-14T00:58:25.785Z,8.83
2019-04-14T01:01:06.933Z,8.93
2019-04-14T01:03:48.303Z,6.58
2019-04-14T01:06:29.418Z,10.90
2019-04-14T01:09:13.041Z,8.35
2019-04-14T01:11:57.429Z,8.70
2019-04-14T01:14:38.760Z,8.90
2019-04-14T01:17:19.912Z,10.05
2019-04-14T01:20:01.466Z,9.03
2019-04-14T01:22:42.483Z,8.03
2019-04-14T01:25:23.923Z,9.33
2019-04-14T01:28:04.665Z,8.45
2019-04-14T01:30:45.849Z,8.70
2019-04-14T01:33:27.259Z,8.63
2019-04-14T01:36:06.232Z,8.80
2019-04-14T01:38:54.199Z,6.92
2019-04-14T01:41:43.131Z,9.98
2019-04-14T01:44:32.980Z,6.95
2019-04-14T01:47:21.291Z,8.65
2019-04-14T01:50:10.499Z,8.93
2019-04-14T01:56:14.374Z,8.45
2019-04-14T02:04:50.946Z,8.80
2019-04-14T02:07:32.203Z,9.50
2019-04-14T02:10:13.260Z,9.85
2019-04-14T02:12:54.303Z,10.78
2019-04-14T02:15:35.575Z,9.75
2019-04-14T02:18:16.387Z,10.88
2019-04-14T02:20:57.893Z,13.70
2019-04-14T02:23:39.091Z,9.25
2019-04-14T02:26:19.771Z,11.25
2019-04-14T02:29:01.319Z,11.35
2019-04-14T02:32:09.916Z,10.30
2019-04-14T02:37:34.745Z,12.85
2019-04-14T02:40:21.717Z,13.03
2019-04-14T02:42:54.300Z,10.55
2019-04-14T02:45:45.235Z,10.72
2019-04-14T02:48:41.961Z,12.28
2019-04-14T02:53:53.349Z,11.00
2019-04-14T02:56:28.026Z,9.95
2019-04-14T02:59:13.134Z,13.00
2019-04-14T03:02:15.628Z,11.50
2019-04-14T03:10:03.286Z,10.60
2019-04-14T03:12:46.509Z,12.33
2019-04-14T03:15:35.320Z,10.40
2019-04-14T03:21:21.319Z,13.30
2019-04-14T03:30:06.762Z,11.55
2019-04-14T03:32:52.898Z,10.90
2019-04-14T03:38:11.367Z,11.10
2019-04-14T03:40:42.926Z,10.10
2019-04-14T03:43:28.320Z,12.53
2019-04-14T03:46:09.186Z,12.60
2019-04-14T03:51:38.282Z,9.20
2019-04-14T03:54:10.920Z,9.35
2019-04-14T03:56:33.483Z,12.30
2019-04-14T03:59:15.185Z,10.82
2019-04-14T04:01:56.639Z,8.18
2019-04-14T04:04:38.037Z,10.35
2019-04-14T04:07:19.270Z,14.40
2019-04-14T04:10:01.159Z,11.40
2019-04-14T04:12:42.221Z,14.75
2019-04-14T04:15:23.540Z,9.85
2019-04-14T04:18:24.678Z,10.80
2019-04-14T04:21:26.897Z,8.60
2019-04-14T04:27:20.028Z,11.53
2019-04-14T04:30:03.770Z,10.88
2019-04-14T04:35:43.699Z,8.73
2019-04-14T04:38:26.711Z,11.38
2019-04-14T04:41:08.042Z,13.78
2019-04-14T04:43:49.406Z,11.65
2019-04-14T04:46:30.926Z,11.75
2019-04-14T04:49:16.434Z,10.40
2019-04-14T04:51:55.034Z,9.93
2019-04-14T04:54:36.322Z,10.55
2019-04-14T04:57:17.912Z,11.18
2019-04-14T04:59:58.347Z,11.43
2019-04-14T05:02:39.616Z,9.55
2019-04-14T05:05:20.966Z,12.80
2019-04-14T05:08:02.240Z,10.45
2019-04-14T05:10:45.682Z,11.00
2019-04-14T05:13:27.047Z,9.00
2019-04-14T05:16:08.907Z,11.03
2019-04-14T05:18:50.847Z,9.78
2019-04-14T05:21:32.134Z,9.23
2019-04-14T05:24:13.619Z,9.28
2019-04-14T05:26:54.893Z,8.83
2019-04-14T05:29:36.432Z,9.73
2019-04-14T05:32:17.382Z,10.88
2019-04-14T05:34:58.723Z,11.40
2019-04-14T05:37:40.118Z,11.28
2019-04-14T05:40:18.963Z,10.03
2019-04-14T05:43:06.796Z,11.93
2019-04-14T05:45:56.665Z,8.48
2019-04-14T05:48:47.017Z,10.68
2019-04-14T05:51:35.279Z,9.23
2019-04-14T05:54:23.161Z,11.80
2019-04-14T05:57:13.378Z,10.95
2019-04-14T06:00:02.231Z,11.43
2019-04-14T06:02:50.680Z,10.70
2019-04-14T06:05:32.520Z,11.33
2019-04-14T06:08:13.251Z,10.32
2019-04-14T06:10:53.735Z,10.65
2019-04-14T06:13:34.122Z,11.28
2019-04-14T06:16:14.811Z,10.43
2019-04-14T06:18:55.516Z,10.40
2019-04-14T06:21:35.937Z,10.93
2019-04-14T06:24:16.586Z,9.55
2019-04-14T06:26:57.683Z,11.22
2019-04-14T06:29:38.023Z,9.68
2019-04-14T06:32:20.242Z,12.35
2019-04-14T06:35:20.689Z,9.43
2019-04-14T06:38:05.749Z,9.85
2019-04-14T06:40:47.480Z,9.70
2019-04-14T06:43:27.838Z,10.53
2019-04-14T06:46:08.451Z,9.35
2019-04-14T06:48:49.151Z,11.20
2019-04-14T06:51:29.760Z,9.03
2019-04-14T06:54:10.739Z,10.15
2019-04-14T06:56:51.233Z,9.88
2019-04-14T06:59:31.695Z,9.78
2019-04-14T07:02:12.230Z,9.73
2019-04-14T07:04:52.703Z,9.25
2019-04-14T07:07:33.439Z,9.85
2019-04-14T07:10:14.156Z,9.93
2019-04-14T07:12:54.625Z,11.33
2019-04-14T07:15:35.187Z,9.63
2019-04-14T07:18:16.732Z,11.43
2019-04-14T07:20:57.477Z,11.20
2019-04-14T07:23:38.137Z,11.45
2019-04-14T07:26:18.530Z,10.28
2019-04-14T07:28:59.136Z,11.28
2019-04-14T07:31:59.416Z,12.78
2019-04-14T07:34:42.235Z,9.63
2019-04-14T07:37:42.234Z,9.70
2019-04-14T07:40:24.520Z,9.80
2019-04-14T07:46:03.082Z,9.75
2019-04-14T07:48:45.988Z,11.08
2019-04-14T07:51:32.372Z,10.08
2019-04-14T07:57:33.939Z,9.95
2019-04-14T08:06:16.875Z,8.73
2019-04-14T08:08:57.415Z,9.08
2019-04-14T08:11:38.152Z,10.30
2019-04-14T08:14:19.039Z,9.65
2019-04-14T08:16:59.650Z,10.70
2019-04-14T08:19:40.283Z,9.90
2019-04-14T08:22:21.021Z,11.25
2019-04-14T08:25:01.695Z,9.90
2019-04-14T08:27:42.155Z,11.00
2019-04-14T08:30:22.655Z,9.38
2019-04-14T08:33:03.403Z,9.00
2019-04-14T08:35:44.195Z,8.78
2019-04-14T08:38:24.403Z,10.32
2019-04-14T08:41:04.967Z,11.00
2019-04-14T08:43:47.375Z,9.63
2019-04-14T08:52:27.635Z,10.00
2019-04-14T09:03:50.956Z,9.55
2019-04-14T09:06:35.903Z,9.30
2019-04-14T09:09:21.503Z,11.08
2019-04-14T09:15:09.659Z,10.03
2019-04-14T09:17:50.217Z,10.72
2019-04-14T09:20:30.616Z,9.68
2019-04-14T09:23:11.444Z,10.23
2019-04-14T09:25:51.931Z,9.30
2019-04-14T09:28:32.219Z,9.53
2019-04-14T09:31:12.859Z,10.25
2019-04-14T09:33:53.460Z,9.85
2019-04-14T09:36:33.852Z,9.20
2019-04-14T09:39:14.393Z,8.90
2019-04-14T09:41:55.059Z,9.30
2019-04-14T09:44:35.511Z,9.40
2019-04-14T09:47:16.275Z,8.90
2019-04-14T09:49:57.098Z,9.68
2019-04-14T09:52:38.062Z,7.83
2019-04-14T09:55:19.219Z,8.45
2019-04-14T09:57:59.711Z,10.13
2019-04-14T10:00:41.152Z,9.40
2019-04-14T10:03:22.520Z,8.08
2019-04-14T10:06:03.465Z,9.58
2019-04-14T10:08:44.029Z,8.18
2019-04-14T10:11:24.807Z,9.40
2019-04-14T10:14:05.441Z,9.08
2019-04-14T10:16:46.197Z,8.50
2019-04-14T10:19:26.917Z,8.93
2019-04-14T10:22:07.695Z,8.53
2019-04-14T10:24:48.502Z,8.60
2019-04-14T10:27:29.643Z,8.60
2019-04-14T10:30:10.273Z,8.73
2019-04-14T10:32:51.255Z,8.93
2019-04-14T10:35:31.967Z,7.40
2019-04-14T10:38:12.571Z,9.93
2019-04-14T10:40:53.287Z,9.25
2019-04-14T10:43:33.843Z,9.23
2019-04-14T10:46:14.476Z,8.90
2019-04-14T10:48:55.759Z,9.10
2019-04-14T10:51:36.727Z,8.73
2019-04-14T10:54:16.948Z,9.80
2019-04-14T10:56:57.190Z,10.00
2019-04-14T10:59:37.873Z,9.33
2019-04-14T11:02:19.035Z,9.08
2019-04-14T11:04:59.674Z,8.50
2019-04-14T11:07:40.527Z,9.48
2019-04-14T11:10:21.155Z,8.70
2019-04-14T11:13:02.216Z,8.13
2019-04-14T11:15:43.021Z,8.33
2019-04-14T11:18:23.728Z,10.50
2019-04-14T11:21:04.275Z,7.83
2019-04-14T11:23:44.867Z,9.08
2019-04-14T11:26:25.092Z,9.38
2019-04-14T11:29:05.606Z,10.38
2019-04-14T11:34:55.027Z,9.48
2019-04-14T11:37:57.815Z,9.58
2019-04-14T11:40:42.739Z,9.08
2019-04-14T11:43:23.770Z,8.65
2019-04-14T11:46:04.753Z,8.73
2019-04-14T11:48:45.212Z,8.98
2019-04-14T11:51:25.639Z,8.90
2019-04-14T11:54:06.343Z,9.03
2019-04-14T11:56:47.155Z,7.75
2019-04-14T11:59:48.222Z,8.53
2019-04-14T12:05:53.639Z,9.43
2019-04-14T12:08:54.947Z,7.85
2019-04-14T12:11:36.038Z,8.50
2019-04-14T12:14:17.025Z,7.80
2019-04-14T12:16:57.579Z,8.68
2019-04-14T12:19:38.380Z,8.60
2019-04-14T12:22:18.744Z,8.40
2019-04-14T12:24:59.036Z,7.75
2019-04-14T12:27:39.836Z,7.60
2019-04-14T12:30:20.299Z,8.33
2019-04-14T12:33:00.872Z,8.68
2019-04-14T12:35:41.427Z,9.10
2019-04-14T12:38:22.029Z,8.90
2019-04-14T12:41:04.381Z,8.25
2019-04-14T12:47:13.117Z,8.00
2019-04-14T12:49:58.088Z,8.25
2019-04-14T12:52:38.385Z,8.75
2019-04-14T12:55:19.059Z,8.20
2019-04-14T12:58:01.804Z,7.05
2019-04-14T13:03:37.127Z,8.50
2019-04-14T13:06:18.039Z,7.87
2019-04-14T13:08:58.543Z,8.90
2019-04-14T13:11:39.379Z,7.70
2019-04-14T13:14:19.975Z,8.78
2019-04-14T13:17:00.300Z,8.83
2019-04-14T13:19:41.356Z,7.47
2019-04-14T13:22:33.220Z,8.30
2019-04-14T13:25:04.904Z,8.60
2019-04-14T13:27:46.027Z,7.95
2019-04-14T13:30:28.496Z,7.70
2019-04-14T13:33:09.463Z,8.83
2019-04-14T13:35:50.220Z,9.23
2019-04-14T13:38:31.299Z,8.83
2019-04-14T13:41:12.316Z,7.20
2019-04-14T13:43:53.145Z,7.95
2019-04-14T13:46:33.833Z,7.05
2019-04-14T13:49:14.272Z,8.28
2019-04-14T13:51:55.086Z,8.35
2019-04-14T13:54:35.583Z,8.25
2019-04-14T13:57:16.243Z,7.67
2019-04-14T13:59:56.811Z,8.53
2019-04-14T14:02:37.247Z,7.15
2019-04-14T14:05:18.243Z,7.80
2019-04-14T14:07:58.995Z,8.13
2019-04-14T14:10:39.716Z,7.65
2019-04-14T14:13:25.021Z,7.65
2019-04-14T14:16:07.551Z,8.25
2019-04-14T14:19:07.447Z,6.45
2019-04-14T14:21:50.435Z,7.87
2019-04-14T14:24:51.801Z,7.08
2019-04-14T14:27:32.794Z,7.45
2019-04-14T14:30:15.261Z,7.05
2019-04-14T14:32:55.751Z,6.67
2019-04-14T14:35:36.342Z,6.60
2019-04-14T14:38:17.059Z,7.22
2019-04-14T14:40:59.340Z,7.05
2019-04-14T14:43:40.227Z,7.80
2019-04-14T14:49:44.599Z,6.45
2019-04-14T14:52:25.851Z,6.00
2019-04-14T14:55:06.162Z,6.40
2019-04-14T14:57:46.883Z,5.72
2019-04-14T15:00:28.923Z,6.12
2019-04-14T15:03:10.031Z,6.03
2019-04-14T15:05:50.867Z,5.60
2019-04-14T15:08:31.399Z,6.10
2019-04-14T15:11:12.182Z,5.40
2019-04-14T15:13:52.822Z,6.08
2019-04-14T15:16:33.604Z,5.55
2019-04-14T15:19:14.909Z,5.60
2019-04-14T15:21:55.540Z,5.35
2019-04-14T15:24:36.483Z,4.95
2019-04-14T15:27:17.131Z,5.85
2019-04-14T15:29:57.695Z,5.08
2019-04-14T15:32:38.351Z,4.10
2019-04-14T15:35:19.079Z,4.80
2019-04-14T15:37:59.723Z,6.28
2019-04-14T15:40:40.395Z,4.80
2019-04-14T15:43:21.191Z,4.75
2019-04-14T15:46:01.740Z,5.03
2019-04-14T15:48:42.660Z,5.25
2019-04-14T15:51:22.947Z,4.40
2019-04-14T15:54:03.576Z,4.45
2019-04-14T15:56:48.823Z,4.72
2019-04-14T15:59:49.024Z,4.67
2019-04-14T16:02:35.610Z,4.83
2019-04-14T16:08:29.252Z,5.10
2019-04-14T16:11:29.396Z,5.50
2019-04-14T16:14:12.147Z,5.70
2019-04-14T16:17:11.545Z,4.70
2019-04-14T16:19:54.502Z,5.37
2019-04-14T16:22:42.495Z,3.90
2019-04-14T16:25:49.641Z,4.70
2019-04-14T16:28:56.544Z,4.30
2019-04-14T16:32:03.457Z,4.90
2019-04-14T16:37:59.983Z,4.47
2019-04-14T16:40:48.045Z,5.70
2019-04-14T16:43:35.755Z,5.05
2019-04-14T16:46:23.479Z,4.55
2019-04-14T16:49:11.491Z,4.60
2019-04-14T16:52:18.643Z,5.12
2019-04-14T16:58:34.304Z,4.22
2019-04-14T17:01:41.216Z,4.80
2019-04-14T17:04:21.955Z,4.92
2019-04-14T17:07:02.663Z,5.00
2019-04-14T17:09:43.379Z,4.83
2019-04-14T17:12:24.384Z,5.97
2019-04-14T17:18:28.556Z,4.28
2019-04-14T17:21:27.948Z,4.00
2019-04-14T17:30:15.163Z,4.47
2019-04-14T17:33:00.439Z,3.12
2019-04-14T17:41:40.306Z,3.80
2019-04-14T17:44:25.991Z,4.35
2019-04-14T17:47:10.923Z,4.45
2019-04-14T17:52:57.339Z,4.37
2019-04-14T17:58:43.991Z,4.25
2019-04-14T18:01:26.307Z,4.67
2019-04-14T18:04:09.290Z,3.72
2019-04-14T18:06:54.157Z,4.08
2019-04-14T18:09:55.104Z,3.15
2019-04-14T18:12:37.254Z,3.87
2019-04-14T18:15:22.568Z,4.55
2019-04-14T18:18:23.954Z,5.00
2019-04-14T18:21:06.031Z,4.05
2019-04-14T18:23:46.992Z,2.90
2019-04-14T18:26:27.761Z,3.70
2019-04-14T18:29:28.895Z,2.75
2019-04-14T18:35:18.226Z,3.00
2019-04-14T18:41:11.115Z,2.87
2019-04-14T18:43:52.955Z,4.12
2019-04-14T18:49:58.567Z,3.35
2019-04-14T18:55:44.908Z,4.12
2019-04-14T19:01:29.429Z,3.67
2019-04-14T19:04:10.286Z,3.62
2019-04-14T19:06:50.703Z,4.65
2019-04-14T19:09:30.878Z,3.10
2019-04-14T19:15:10.374Z,3.12
2019-04-14T19:17:53.175Z,3.80
2019-04-14T19:20:33.731Z,3.47
2019-04-14T19:23:14.080Z,5.03
2019-04-14T19:25:55.066Z,3.67
2019-04-14T19:28:35.671Z,2.80
2019-04-14T19:31:16.383Z,3.50
2019-04-14T19:33:57.055Z,4.08
2019-04-14T19:36:37.955Z,3.15
2019-04-14T19:39:18.638Z,2.90
2019-04-14T19:41:59.412Z,2.30
2019-04-14T19:44:39.802Z,3.72
2019-04-14T19:47:20.531Z,2.75
2019-04-14T19:50:01.125Z,2.05
2019-04-14T19:52:41.706Z,2.52
2019-04-14T19:55:22.727Z,2.83
2019-04-14T19:58:03.609Z,2.12
2019-04-14T20:00:43.947Z,2.20
2019-04-14T20:03:25.219Z,1.80
2019-04-14T20:06:06.054Z,3.00
2019-04-14T20:08:46.231Z,2.35
2019-04-14T20:11:26.946Z,2.12
2019-04-14T20:14:08.212Z,2.45
2019-04-14T20:17:09.380Z,3.08
2019-04-14T20:20:09.268Z,2.72
2019-04-14T20:23:10.682Z,2.00
2019-04-14T20:26:11.630Z,1.75
2019-04-14T20:28:56.475Z,2.60
2019-04-14T20:31:39.050Z,2.17
2019-04-14T20:34:20.165Z,2.15
2019-04-14T20:37:00.983Z,2.00
2019-04-14T20:39:41.532Z,2.30
2019-04-14T20:42:22.251Z,3.08
2019-04-14T20:45:04.731Z,2.95
2019-04-14T20:47:44.939Z,2.65
2019-04-14T20:50:26.088Z,2.55
2019-04-14T20:53:06.744Z,2.05
2019-04-14T20:55:47.874Z,2.10
2019-04-14T20:58:28.435Z,3.08
2019-04-14T21:01:10.930Z,1.80
2019-04-14T21:06:46.736Z,3.62
2019-04-14T21:09:28.736Z,2.10
2019-04-14T21:12:14.079Z,2.08
2019-04-14T21:15:14.353Z,2.10
2019-04-14T21:18:14.855Z,2.87
2019-04-14T21:20:57.528Z,2.52
2019-04-14T21:23:40.156Z,2.70
2019-04-14T21:26:22.971Z,2.60
2019-04-14T21:29:05.607Z,2.50
2019-04-14T21:31:48.455Z,2.95
2019-04-14T21:34:30.904Z,1.87
2019-04-14T21:40:36.370Z,2.35
2019-04-14T21:43:16.832Z,2.30
2019-04-14T21:45:57.971Z,2.65
2019-04-14T21:48:38.689Z,1.65
2019-04-14T21:51:19.219Z,1.72
2019-04-14T21:53:59.752Z,2.35
2019-04-14T21:56:40.675Z,2.75
2019-04-14T22:02:34.787Z,2.75
2019-04-14T22:05:19.555Z,2.65
2019-04-14T22:11:07.595Z,2.58
2019-04-14T22:13:51.129Z,3.08
2019-04-14T22:16:31.001Z,3.45
2019-04-14T22:19:11.590Z,2.85
2019-04-14T22:21:52.643Z,3.70
2019-04-14T22:24:33.023Z,3.42
2019-04-14T22:27:13.491Z,2.40
2019-04-14T22:29:54.331Z,2.83
2019-04-14T22:32:34.980Z,2.80
2019-04-14T22:35:15.543Z,2.80
2019-04-14T22:37:56.771Z,2.30
2019-04-14T22:40:37.705Z,2.77
2019-04-14T22:43:18.467Z,3.05
2019-04-14T22:45:58.803Z,2.52
2019-04-14T22:48:39.592Z,3.20
2019-04-14T22:51:20.181Z,2.95
2019-04-14T22:54:00.491Z,2.90
2019-04-14T22:56:40.819Z,2.70
2019-04-14T22:59:21.232Z,2.50
2019-04-14T23:02:06.175Z,3.17
2019-04-14T23:07:59.130Z,2.37
2019-04-14T23:10:41.710Z,3.83
2019-04-14T23:16:47.347Z,3.20
2019-04-14T23:22:35.784Z,3.60
2019-04-14T23:25:16.984Z,3.10
2019-04-14T23:27:57.504Z,3.45
2019-04-14T23:30:38.335Z,3.27
2019-04-14T23:33:19.283Z,2.47
2019-04-14T23:35:59.592Z,3.15
2019-04-14T23:38:40.147Z,3.92
2019-04-14T23:41:20.563Z,2.95
2019-04-14T23:44:01.163Z,4.10
2019-04-14T23:46:41.475Z,3.72
2019-04-14T23:49:22.483Z,2.60
2019-04-14T23:52:03.199Z,3.17
2019-04-14T23:54:43.619Z,2.90
2019-04-14T23:57:24.033Z,2.92
